Allakaket, Alaska
Current Conditions -  °F | °C
As of 12:53 AM on Saturday 01 Nov 2014 (Local Time) from PABT Reporting Station
Broken Clouds Broken Clouds  
Wind Chill:   Ceiling: 12000
Heat Index: 14°   Visibility: 10mi
Dew Point:   Wind: 12mph
Humidity: 54%   Direction: 30°NNE
Pressure: 29.6"   Gusts: NA
Location:  66.57°N, 152.65°W
Report Text: PABT 010853Z 03010KT 10SM SCT080 BKN120 M10/M18 A2960 RMK AO2 SLP041 T11001178 410721128 53002
Loading
Personal Weather Stations






























Interactive Weather Map
Tropical Storm Tracking
New forecast layout! Learn more

10-Day Weather Forecast

Advertisements
Track Severe Weather on mobile